sensor_id;sensor_type;location;lat;lon;timestamp;P1;durP1;ratioP1;P2;durP2;ratioP2
20454;SDS011;10386;54.314;10.022;2022-10-31T00:00:48;35.17;;;19.37;;
20454;SDS011;10386;54.314;10.022;2022-10-31T00:03:16;28.20;;;17.87;;
20454;SDS011;10386;54.314;10.022;2022-10-31T00:05:44;30.57;;;17.33;;
20454;SDS011;10386;54.314;10.022;2022-10-31T00:08:13;33.80;;;18.57;;
20454;SDS011;10386;54.314;10.022;2022-10-31T00:10:41;35.50;;;18.83;;
20454;SDS011;10386;54.314;10.022;2022-10-31T00:13:10;33.40;;;19.57;;
20454;SDS011;10386;54.314;10.022;2022-10-31T00:15:38;33.73;;;19.37;;
20454;SDS011;10386;54.314;10.022;2022-10-31T00:18:07;32.67;;;18.47;;
20454;SDS011;10386;54.314;10.022;2022-10-31T00:20:35;31.47;;;18.33;;
20454;SDS011;10386;54.314;10.022;2022-10-31T00:23:03;30.83;;;17.83;;
20454;SDS011;10386;54.314;10.022;2022-10-31T00:25:35;32.63;;;18.50;;
20454;SDS011;10386;54.314;10.022;2022-10-31T00:28:05;35.83;;;18.60;;
20454;SDS011;10386;54.314;10.022;2022-10-31T00:30:33;27.97;;;16.20;;
20454;SDS011;10386;54.314;10.022;2022-10-31T00:33:02;33.97;;;17.87;;
20454;SDS011;10386;54.314;10.022;2022-10-31T00:35:30;36.87;;;19.67;;
20454;SDS011;10386;54.314;10.022;2022-10-31T00:37:58;36.00;;;18.93;;
20454;SDS011;10386;54.314;10.022;2022-10-31T00:40:25;33.10;;;17.93;;
20454;SDS011;10386;54.314;10.022;2022-10-31T00:42:55;30.07;;;17.60;;
20454;SDS011;10386;54.314;10.022;2022-10-31T00:45:23;35.17;;;17.87;;
20454;SDS011;10386;54.314;10.022;2022-10-31T00:47:51;34.97;;;18.63;;
20454;SDS011;10386;54.314;10.022;2022-10-31T00:50:18;33.60;;;18.03;;
20454;SDS011;10386;54.314;10.022;2022-10-31T00:52:45;32.27;;;16.07;;
20454;SDS011;10386;54.314;10.022;2022-10-31T00:55:12;33.80;;;18.93;;
20454;SDS011;10386;54.314;10.022;2022-10-31T00:57:40;31.87;;;17.93;;
20454;SDS011;10386;54.314;10.022;2022-10-31T01:00:07;38.50;;;18.20;;
20454;SDS011;10386;54.314;10.022;2022-10-31T01:02:35;36.57;;;17.03;;
20454;SDS011;10386;54.314;10.022;2022-10-31T01:05:03;36.33;;;16.77;;
20454;SDS011;10386;54.314;10.022;2022-10-31T01:07:30;34.27;;;17.87;;
20454;SDS011;10386;54.314;10.022;2022-10-31T01:09:58;29.60;;;16.63;;
20454;SDS011;10386;54.314;10.022;2022-10-31T01:12:26;31.67;;;17.43;;
20454;SDS011;10386;54.314;10.022;2022-10-31T01:14:53;29.67;;;16.27;;
20454;SDS011;10386;54.314;10.022;2022-10-31T01:17:21;33.17;;;16.70;;
20454;SDS011;10386;54.314;10.022;2022-10-31T01:19:48;33.33;;;18.20;;
20454;SDS011;10386;54.314;10.022;2022-10-31T01:22:16;30.73;;;16.30;;
20454;SDS011;10386;54.314;10.022;2022-10-31T01:24:43;32.60;;;17.17;;
20454;SDS011;10386;54.314;10.022;2022-10-31T01:27:10;38.90;;;19.17;;
20454;SDS011;10386;54.314;10.022;2022-10-31T01:29:38;41.33;;;19.67;;
20454;SDS011;10386;54.314;10.022;2022-10-31T01:32:05;34.27;;;18.30;;
20454;SDS011;10386;54.314;10.022;2022-10-31T01:34:33;32.10;;;18.33;;
20454;SDS011;10386;54.314;10.022;2022-10-31T01:37:01;56.50;;;22.40;;
20454;SDS011;10386;54.314;10.022;2022-10-31T01:39:28;55.50;;;24.30;;
20454;SDS011;10386;54.314;10.022;2022-10-31T01:41:56;70.17;;;27.80;;
20454;SDS011;10386;54.314;10.022;2022-10-31T01:47:05;78.43;;;31.27;;
20454;SDS011;10386;54.314;10.022;2022-10-31T01:49:40;76.10;;;30.47;;
20454;SDS011;10386;54.314;10.022;2022-10-31T01:52:17;91.40;;;34.27;;
20454;SDS011;10386;54.314;10.022;2022-10-31T01:54:48;89.37;;;34.73;;
20454;SDS011;10386;54.314;10.022;2022-10-31T01:57:24;92.13;;;34.47;;
20454;SDS011;10386;54.314;10.022;2022-10-31T01:59:53;102.57;;;37.87;;
20454;SDS011;10386;54.314;10.022;2022-10-31T02:02:30;99.93;;;36.63;;
20454;SDS011;10386;54.314;10.022;2022-10-31T02:04:59;97.53;;;37.50;;
20454;SDS011;10386;54.314;10.022;2022-10-31T02:10:31;98.77;;;34.23;;
20454;SDS011;10386;54.314;10.022;2022-10-31T02:13:01;91.97;;;36.20;;
20454;SDS011;10386;54.314;10.022;2022-10-31T02:15:31;91.37;;;34.27;;
20454;SDS011;10386;54.314;10.022;2022-10-31T02:17:59;89.47;;;35.33;;
20454;SDS011;10386;54.314;10.022;2022-10-31T02:20:29;93.07;;;33.93;;
20454;SDS011;10386;54.314;10.022;2022-10-31T02:31:25;86.27;;;32.23;;
20454;SDS011;10386;54.314;10.022;2022-10-31T02:34:04;88.13;;;31.97;;
20454;SDS011;10386;54.314;10.022;2022-10-31T02:36:48;97.10;;;33.90;;
20454;SDS011;10386;54.314;10.022;2022-10-31T02:39:23;82.27;;;31.73;;
20454;SDS011;10386;54.314;10.022;2022-10-31T02:47:29;90.53;;;34.03;;
20454;SDS011;10386;54.314;10.022;2022-10-31T02:52:35;85.67;;;32.40;;
20454;SDS011;10386;54.314;10.022;2022-10-31T02:55:09;99.77;;;35.33;;
20454;SDS011;10386;54.314;10.022;2022-10-31T02:58:01;101.57;;;34.50;;
20454;SDS011;10386;54.314;10.022;2022-10-31T03:00:45;94.10;;;32.57;;
20454;SDS011;10386;54.314;10.022;2022-10-31T03:03:25;88.73;;;33.03;;
20454;SDS011;10386;54.314;10.022;2022-10-31T03:06:00;90.03;;;31.33;;
20454;SDS011;10386;54.314;10.022;2022-10-31T03:11:31;87.43;;;31.90;;
20454;SDS011;10386;54.314;10.022;2022-10-31T03:14:09;99.97;;;34.23;;
20454;SDS011;10386;54.314;10.022;2022-10-31T03:16:51;104.57;;;33.63;;
20454;SDS011;10386;54.314;10.022;2022-10-31T03:21:58;101.37;;;34.13;;
20454;SDS011;10386;54.314;10.022;2022-10-31T03:24:35;101.83;;;34.77;;
20454;SDS011;10386;54.314;10.022;2022-10-31T03:27:06;108.43;;;35.70;;
20454;SDS011;10386;54.314;10.022;2022-10-31T03:29:36;99.30;;;34.47;;
20454;SDS011;10386;54.314;10.022;2022-10-31T03:32:10;96.80;;;33.83;;
20454;SDS011;10386;54.314;10.022;2022-10-31T03:34:42;104.47;;;35.03;;
20454;SDS011;10386;54.314;10.022;2022-10-31T03:37:13;101.10;;;35.77;;
20454;SDS011;10386;54.314;10.022;2022-10-31T03:39:43;110.53;;;35.17;;
20454;SDS011;10386;54.314;10.022;2022-10-31T03:42:18;102.17;;;34.10;;
20454;SDS011;10386;54.314;10.022;2022-10-31T03:47:43;101.33;;;35.77;;
20454;SDS011;10386;54.314;10.022;2022-10-31T03:50:12;101.77;;;35.27;;
20454;SDS011;10386;54.314;10.022;2022-10-31T03:52:48;109.80;;;36.60;;
20454;SDS011;10386;54.314;10.022;2022-10-31T03:55:32;97.57;;;36.83;;
20454;SDS011;10386;54.314;10.022;2022-10-31T03:58:19;116.27;;;37.27;;
20454;SDS011;10386;54.314;10.022;2022-10-31T04:00:50;111.23;;;37.53;;
20454;SDS011;10386;54.314;10.022;2022-10-31T04:03:56;104.53;;;34.60;;
20454;SDS011;10386;54.314;10.022;2022-10-31T04:06:25;118.00;;;35.50;;
20454;SDS011;10386;54.314;10.022;2022-10-31T04:08:56;135.37;;;35.13;;
20454;SDS011;10386;54.314;10.022;2022-10-31T04:11:28;129.80;;;35.63;;
20454;SDS011;10386;54.314;10.022;2022-10-31T04:13:59;137.97;;;37.17;;
20454;SDS011;10386;54.314;10.022;2022-10-31T04:16:29;143.43;;;37.17;;
20454;SDS011;10386;54.314;10.022;2022-10-31T04:18:56;129.33;;;35.77;;
20454;SDS011;10386;54.314;10.022;2022-10-31T04:21:27;141.93;;;36.10;;
20454;SDS011;10386;54.314;10.022;2022-10-31T04:23:56;127.43;;;35.07;;
20454;SDS011;10386;54.314;10.022;2022-10-31T04:26:23;150.90;;;35.37;;
20454;SDS011;10386;54.314;10.022;2022-10-31T04:28:51;149.77;;;36.63;;
20454;SDS011;10386;54.314;10.022;2022-10-31T04:31:19;126.40;;;35.47;;
20454;SDS011;10386;54.314;10.022;2022-10-31T04:33:46;120.13;;;36.53;;
20454;SDS011;10386;54.314;10.022;2022-10-31T04:36:13;107.00;;;33.87;;
20454;SDS011;10386;54.314;10.022;2022-10-31T04:38:40;101.13;;;36.70;;
20454;SDS011;10386;54.314;10.022;2022-10-31T04:41:08;106.13;;;35.23;;
20454;SDS011;10386;54.314;10.022;2022-10-31T04:43:35;120.63;;;34.80;;
20454;SDS011;10386;54.314;10.022;2022-10-31T04:46:03;113.10;;;34.37;;
20454;SDS011;10386;54.314;10.022;2022-10-31T04:48:30;116.53;;;35.83;;
20454;SDS011;10386;54.314;10.022;2022-10-31T04:50:58;121.33;;;34.87;;
20454;SDS011;10386;54.314;10.022;2022-10-31T04:53:26;116.67;;;34.13;;
20454;SDS011;10386;54.314;10.022;2022-10-31T04:55:53;121.43;;;38.50;;
20454;SDS011;10386;54.314;10.022;2022-10-31T04:58:21;110.20;;;34.07;;
20454;SDS011;10386;54.314;10.022;2022-10-31T05:00:51;128.27;;;38.50;;
20454;SDS011;10386;54.314;10.022;2022-10-31T05:03:19;123.07;;;36.43;;
20454;SDS011;10386;54.314;10.022;2022-10-31T05:05:46;124.87;;;36.80;;
20454;SDS011;10386;54.314;10.022;2022-10-31T05:08:14;121.30;;;33.90;;
20454;SDS011;10386;54.314;10.022;2022-10-31T05:10:41;110.20;;;34.37;;
20454;SDS011;10386;54.314;10.022;2022-10-31T05:13:09;113.90;;;36.27;;
20454;SDS011;10386;54.314;10.022;2022-10-31T05:15:36;105.83;;;33.67;;
20454;SDS011;10386;54.314;10.022;2022-10-31T05:18:03;118.13;;;32.87;;
20454;SDS011;10386;54.314;10.022;2022-10-31T05:20:31;127.67;;;35.67;;
20454;SDS011;10386;54.314;10.022;2022-10-31T05:22:58;130.40;;;33.93;;
20454;SDS011;10386;54.314;10.022;2022-10-31T05:25:26;114.10;;;33.70;;
20454;SDS011;10386;54.314;10.022;2022-10-31T05:27:55;118.90;;;32.70;;
20454;SDS011;10386;54.314;10.022;2022-10-31T05:30:28;119.47;;;32.37;;
20454;SDS011;10386;54.314;10.022;2022-10-31T05:32:58;115.10;;;31.23;;
20454;SDS011;10386;54.314;10.022;2022-10-31T05:35:28;102.93;;;29.73;;
20454;SDS011;10386;54.314;10.022;2022-10-31T05:37:57;116.30;;;31.70;;
20454;SDS011;10386;54.314;10.022;2022-10-31T05:40:25;103.17;;;31.73;;
20454;SDS011;10386;54.314;10.022;2022-10-31T05:42:54;104.10;;;30.03;;
20454;SDS011;10386;54.314;10.022;2022-10-31T05:45:23;98.90;;;30.73;;
20454;SDS011;10386;54.314;10.022;2022-10-31T05:47:55;94.87;;;28.87;;
20454;SDS011;10386;54.314;10.022;2022-10-31T05:50:25;94.23;;;27.80;;
20454;SDS011;10386;54.314;10.022;2022-10-31T05:52:55;83.93;;;27.17;;
20454;SDS011;10386;54.314;10.022;2022-10-31T05:55:26;97.73;;;27.37;;
20454;SDS011;10386;54.314;10.022;2022-10-31T05:57:55;78.17;;;26.00;;
20454;SDS011;10386;54.314;10.022;2022-10-31T06:00:23;78.93;;;26.60;;
20454;SDS011;10386;54.314;10.022;2022-10-31T06:03:02;79.03;;;25.30;;
20454;SDS011;10386;54.314;10.022;2022-10-31T06:05:31;74.23;;;26.33;;
20454;SDS011;10386;54.314;10.022;2022-10-31T06:07:58;85.40;;;27.43;;
20454;SDS011;10386;54.314;10.022;2022-10-31T06:10:28;87.20;;;26.80;;
20454;SDS011;10386;54.314;10.022;2022-10-31T06:12:56;81.67;;;25.90;;
20454;SDS011;10386;54.314;10.022;2022-10-31T06:15:23;89.70;;;28.10;;
20454;SDS011;10386;54.314;10.022;2022-10-31T06:17:57;86.80;;;28.13;;
20454;SDS011;10386;54.314;10.022;2022-10-31T06:20:27;78.13;;;26.03;;
20454;SDS011;10386;54.314;10.022;2022-10-31T06:22:55;87.97;;;26.27;;
20454;SDS011;10386;54.314;10.022;2022-10-31T06:25:23;81.50;;;25.57;;
20454;SDS011;10386;54.314;10.022;2022-10-31T06:27:51;84.53;;;26.27;;
20454;SDS011;10386;54.314;10.022;2022-10-31T06:30:37;74.60;;;24.87;;
20454;SDS011;10386;54.314;10.022;2022-10-31T06:33:05;75.93;;;25.33;;
20454;SDS011;10386;54.314;10.022;2022-10-31T06:35:32;77.07;;;26.80;;
20454;SDS011;10386;54.314;10.022;2022-10-31T06:37:59;81.63;;;24.83;;
20454;SDS011;10386;54.314;10.022;2022-10-31T06:40:27;78.23;;;27.10;;
20454;SDS011;10386;54.314;10.022;2022-10-31T06:43:01;77.03;;;26.30;;
20454;SDS011;10386;54.314;10.022;2022-10-31T06:45:28;77.53;;;25.43;;
20454;SDS011;10386;54.314;10.022;2022-10-31T06:47:56;84.20;;;26.83;;
20454;SDS011;10386;54.314;10.022;2022-10-31T06:50:44;77.43;;;26.90;;
20454;SDS011;10386;54.314;10.022;2022-10-31T06:53:11;86.13;;;27.73;;
20454;SDS011;10386;54.314;10.022;2022-10-31T06:55:41;84.30;;;26.80;;
20454;SDS011;10386;54.314;10.022;2022-10-31T06:58:09;71.40;;;24.53;;
20454;SDS011;10386;54.314;10.022;2022-10-31T07:00:59;79.93;;;24.87;;
20454;SDS011;10386;54.314;10.022;2022-10-31T07:03:27;74.97;;;26.30;;
20454;SDS011;10386;54.314;10.022;2022-10-31T07:05:55;73.30;;;26.50;;
20454;SDS011;10386;54.314;10.022;2022-10-31T07:08:23;69.80;;;24.33;;
20454;SDS011;10386;54.314;10.022;2022-10-31T07:10:56;68.23;;;24.27;;
20454;SDS011;10386;54.314;10.022;2022-10-31T07:13:24;73.07;;;23.97;;
20454;SDS011;10386;54.314;10.022;2022-10-31T07:15:53;73.20;;;24.33;;
20454;SDS011;10386;54.314;10.022;2022-10-31T07:18:21;71.07;;;23.03;;
20454;SDS011;10386;54.314;10.022;2022-10-31T07:20:48;69.10;;;23.97;;
20454;SDS011;10386;54.314;10.022;2022-10-31T07:23:16;71.30;;;23.93;;
20454;SDS011;10386;54.314;10.022;2022-10-31T07:25:43;71.73;;;22.80;;
20454;SDS011;10386;54.314;10.022;2022-10-31T07:28:11;58.67;;;22.63;;
20454;SDS011;10386;54.314;10.022;2022-10-31T07:30:39;66.20;;;21.70;;
20454;SDS011;10386;54.314;10.022;2022-10-31T07:33:06;63.07;;;22.43;;
20454;SDS011;10386;54.314;10.022;2022-10-31T07:35:33;62.13;;;22.30;;
20454;SDS011;10386;54.314;10.022;2022-10-31T07:38:09;64.70;;;21.30;;
20454;SDS011;10386;54.314;10.022;2022-10-31T07:40:37;60.87;;;20.93;;
20454;SDS011;10386;54.314;10.022;2022-10-31T07:43:05;62.73;;;19.57;;
20454;SDS011;10386;54.314;10.022;2022-10-31T07:45:39;85.30;;;22.53;;
20454;SDS011;10386;54.314;10.022;2022-10-31T07:48:06;71.93;;;21.40;;
20454;SDS011;10386;54.314;10.022;2022-10-31T07:50:34;62.03;;;20.73;;
20454;SDS011;10386;54.314;10.022;2022-10-31T07:53:02;56.10;;;19.87;;
20454;SDS011;10386;54.314;10.022;2022-10-31T07:55:31;58.33;;;20.57;;
20454;SDS011;10386;54.314;10.022;2022-10-31T07:58:03;66.77;;;20.70;;
20454;SDS011;10386;54.314;10.022;2022-10-31T08:00:32;72.07;;;16.40;;
20454;SDS011;10386;54.314;10.022;2022-10-31T08:03:02;69.37;;;15.50;;
20454;SDS011;10386;54.314;10.022;2022-10-31T08:05:30;92.37;;;17.40;;
20454;SDS011;10386;54.314;10.022;2022-10-31T08:07:59;82.00;;;15.83;;
20454;SDS011;10386;54.314;10.022;2022-10-31T08:10:27;66.57;;;17.07;;
20454;SDS011;10386;54.314;10.022;2022-10-31T08:12:58;53.30;;;16.33;;
20454;SDS011;10386;54.314;10.022;2022-10-31T08:15:35;102.53;;;14.83;;
20454;SDS011;10386;54.314;10.022;2022-10-31T08:18:06;36.50;;;13.50;;
20454;SDS011;10386;54.314;10.022;2022-10-31T08:20:37;74.17;;;11.77;;
20454;SDS011;10386;54.314;10.022;2022-10-31T08:23:05;45.77;;;9.97;;
20454;SDS011;10386;54.314;10.022;2022-10-31T08:25:33;44.20;;;9.70;;
20454;SDS011;10386;54.314;10.022;2022-10-31T08:28:04;40.37;;;9.87;;
20454;SDS011;10386;54.314;10.022;2022-10-31T08:30:33;34.07;;;9.60;;
20454;SDS011;10386;54.314;10.022;2022-10-31T08:33:04;48.60;;;11.07;;
20454;SDS011;10386;54.314;10.022;2022-10-31T08:35:33;28.80;;;10.20;;
20454;SDS011;10386;54.314;10.022;2022-10-31T08:38:01;32.77;;;12.23;;
20454;SDS011;10386;54.314;10.022;2022-10-31T08:40:30;43.43;;;12.60;;
20454;SDS011;10386;54.314;10.022;2022-10-31T08:43:03;42.37;;;12.40;;
20454;SDS011;10386;54.314;10.022;2022-10-31T08:45:36;39.67;;;10.13;;
20454;SDS011;10386;54.314;10.022;2022-10-31T08:48:04;29.47;;;9.70;;
20454;SDS011;10386;54.314;10.022;2022-10-31T08:50:34;29.30;;;9.10;;
20454;SDS011;10386;54.314;10.022;2022-10-31T08:53:03;44.27;;;9.27;;
20454;SDS011;10386;54.314;10.022;2022-10-31T08:55:37;33.77;;;8.87;;
20454;SDS011;10386;54.314;10.022;2022-10-31T08:58:07;28.93;;;9.40;;
20454;SDS011;10386;54.314;10.022;2022-10-31T09:00:37;45.70;;;9.93;;
20454;SDS011;10386;54.314;10.022;2022-10-31T09:03:06;53.67;;;10.27;;
20454;SDS011;10386;54.314;10.022;2022-10-31T09:05:37;33.27;;;8.70;;
20454;SDS011;10386;54.314;10.022;2022-10-31T09:08:06;29.90;;;9.50;;
20454;SDS011;10386;54.314;10.022;2022-10-31T09:10:41;44.17;;;10.30;;
20454;SDS011;10386;54.314;10.022;2022-10-31T09:13:10;28.80;;;9.60;;
20454;SDS011;10386;54.314;10.022;2022-10-31T09:15:42;36.10;;;9.70;;
20454;SDS011;10386;54.314;10.022;2022-10-31T09:18:12;30.67;;;8.90;;
20454;SDS011;10386;54.314;10.022;2022-10-31T09:20:41;30.60;;;9.40;;
20454;SDS011;10386;54.314;10.022;2022-10-31T09:23:14;28.33;;;9.47;;
20454;SDS011;10386;54.314;10.022;2022-10-31T09:25:48;38.03;;;10.53;;
20454;SDS011;10386;54.314;10.022;2022-10-31T09:28:19;37.10;;;10.70;;
20454;SDS011;10386;54.314;10.022;2022-10-31T09:30:48;38.07;;;11.67;;
20454;SDS011;10386;54.314;10.022;2022-10-31T09:33:17;34.20;;;11.43;;
20454;SDS011;10386;54.314;10.022;2022-10-31T09:35:45;36.23;;;11.43;;
20454;SDS011;10386;54.314;10.022;2022-10-31T09:38:13;32.33;;;10.33;;
20454;SDS011;10386;54.314;10.022;2022-10-31T09:43:21;33.03;;;11.07;;
20454;SDS011;10386;54.314;10.022;2022-10-31T09:51:37;30.63;;;10.33;;
20454;SDS011;10386;54.314;10.022;2022-10-31T10:25:38;10.80;;;4.73;;
20454;SDS011;10386;54.314;10.022;2022-10-31T10:31:09;18.03;;;6.63;;
20454;SDS011;10386;54.314;10.022;2022-10-31T10:36:35;18.07;;;6.20;;
20454;SDS011;10386;54.314;10.022;2022-10-31T10:39:08;19.07;;;7.70;;
20454;SDS011;10386;54.314;10.022;2022-10-31T10:41:43;17.80;;;7.60;;
20454;SDS011;10386;54.314;10.022;2022-10-31T10:44:14;18.30;;;7.83;;
20454;SDS011;10386;54.314;10.022;2022-10-31T10:46:43;19.43;;;7.70;;
20454;SDS011;10386;54.314;10.022;2022-10-31T10:49:40;17.43;;;7.50;;
20454;SDS011;10386;54.314;10.022;2022-10-31T10:52:26;22.83;;;8.00;;
20454;SDS011;10386;54.314;10.022;2022-10-31T10:58:18;20.93;;;8.47;;
20454;SDS011;10386;54.314;10.022;2022-10-31T11:00:45;16.40;;;5.67;;
20454;SDS011;10386;54.314;10.022;2022-10-31T11:03:15;12.00;;;6.00;;
20454;SDS011;10386;54.314;10.022;2022-10-31T11:10:58;10.97;;;5.13;;
20454;SDS011;10386;54.314;10.022;2022-10-31T11:13:41;11.87;;;5.03;;
20454;SDS011;10386;54.314;10.022;2022-10-31T11:18:53;11.13;;;5.13;;
20454;SDS011;10386;54.314;10.022;2022-10-31T11:21:31;13.20;;;5.27;;
20454;SDS011;10386;54.314;10.022;2022-10-31T11:24:12;14.27;;;6.60;;
20454;SDS011;10386;54.314;10.022;2022-10-31T11:26:43;15.87;;;6.57;;
20454;SDS011;10386;54.314;10.022;2022-10-31T11:29:14;18.00;;;7.87;;
20454;SDS011;10386;54.314;10.022;2022-10-31T11:31:55;23.07;;;8.50;;
20454;SDS011;10386;54.314;10.022;2022-10-31T11:34:28;15.03;;;8.13;;
20454;SDS011;10386;54.314;10.022;2022-10-31T11:37:20;18.23;;;9.03;;
20454;SDS011;10386;54.314;10.022;2022-10-31T11:39:53;18.90;;;8.00;;
20454;SDS011;10386;54.314;10.022;2022-10-31T11:42:27;21.90;;;8.83;;
20454;SDS011;10386;54.314;10.022;2022-10-31T11:45:02;16.63;;;8.47;;
20454;SDS011;10386;54.314;10.022;2022-10-31T11:47:43;21.13;;;8.73;;
20454;SDS011;10386;54.314;10.022;2022-10-31T11:50:21;21.23;;;9.20;;
20454;SDS011;10386;54.314;10.022;2022-10-31T11:52:54;19.47;;;9.43;;
20454;SDS011;10386;54.314;10.022;2022-10-31T11:55:35;20.90;;;8.77;;
20454;SDS011;10386;54.314;10.022;2022-10-31T11:58:18;21.03;;;9.57;;
20454;SDS011;10386;54.314;10.022;2022-10-31T12:00:53;19.60;;;9.13;;
